sensor_id;sensor_type;location;lat;lon;timestamp;P1;durP1;ratioP1;P2;durP2;ratioP2
36663;SDS011;53333;51.976;20.144;2023-12-29T00:00:05;25.40;;;13.25;;
36663;SDS011;53333;51.976;20.144;2023-12-29T00:02:41;20.98;;;12.43;;
36663;SDS011;53333;51.976;20.144;2023-12-29T00:05:14;25.37;;;12.20;;
36663;SDS011;53333;51.976;20.144;2023-12-29T00:07:47;20.08;;;12.65;;
36663;SDS011;53333;51.976;20.144;2023-12-29T00:10:20;21.20;;;12.02;;
36663;SDS011;53333;51.976;20.144;2023-12-29T00:12:53;27.17;;;12.35;;
36663;SDS011;53333;51.976;20.144;2023-12-29T00:15:28;23.73;;;12.23;;
36663;SDS011;53333;51.976;20.144;2023-12-29T00:18:01;23.75;;;11.60;;
36663;SDS011;53333;51.976;20.144;2023-12-29T00:20:34;24.08;;;12.73;;
36663;SDS011;53333;51.976;20.144;2023-12-29T00:23:12;23.85;;;12.90;;
36663;SDS011;53333;51.976;20.144;2023-12-29T00:25:45;19.30;;;12.43;;
36663;SDS011;53333;51.976;20.144;2023-12-29T00:28:18;23.30;;;12.15;;
36663;SDS011;53333;51.976;20.144;2023-12-29T00:30:53;26.63;;;12.57;;
36663;SDS011;53333;51.976;20.144;2023-12-29T00:33:33;24.15;;;12.52;;
36663;SDS011;53333;51.976;20.144;2023-12-29T00:36:07;24.65;;;11.95;;
36663;SDS011;53333;51.976;20.144;2023-12-29T00:38:40;23.00;;;11.75;;
36663;SDS011;53333;51.976;20.144;2023-12-29T00:41:13;20.60;;;11.67;;
36663;SDS011;53333;51.976;20.144;2023-12-29T00:43:46;18.13;;;10.02;;
36663;SDS011;53333;51.976;20.144;2023-12-29T00:46:20;21.23;;;11.50;;
36663;SDS011;53333;51.976;20.144;2023-12-29T00:48:53;18.85;;;10.43;;
36663;SDS011;53333;51.976;20.144;2023-12-29T00:51:26;21.27;;;11.00;;
36663;SDS011;53333;51.976;20.144;2023-12-29T00:53:59;22.95;;;11.63;;
36663;SDS011;53333;51.976;20.144;2023-12-29T00:56:32;23.03;;;10.93;;
36663;SDS011;53333;51.976;20.144;2023-12-29T00:59:05;19.88;;;10.90;;
36663;SDS011;53333;51.976;20.144;2023-12-29T01:01:40;21.13;;;10.38;;
36663;SDS011;53333;51.976;20.144;2023-12-29T01:04:13;21.90;;;10.23;;
36663;SDS011;53333;51.976;20.144;2023-12-29T01:06:46;19.80;;;10.18;;
36663;SDS011;53333;51.976;20.144;2023-12-29T01:09:19;22.55;;;10.93;;
36663;SDS011;53333;51.976;20.144;2023-12-29T01:11:52;24.77;;;12.53;;
36663;SDS011;53333;51.976;20.144;2023-12-29T01:14:25;20.03;;;11.33;;
36663;SDS011;53333;51.976;20.144;2023-12-29T01:16:59;19.00;;;10.88;;
36663;SDS011;53333;51.976;20.144;2023-12-29T01:19:32;19.85;;;10.95;;
36663;SDS011;53333;51.976;20.144;2023-12-29T01:22:05;20.70;;;11.82;;
36663;SDS011;53333;51.976;20.144;2023-12-29T01:24:38;23.05;;;12.05;;
36663;SDS011;53333;51.976;20.144;2023-12-29T01:27:16;19.10;;;11.40;;
36663;SDS011;53333;51.976;20.144;2023-12-29T01:29:49;20.33;;;11.23;;
36663;SDS011;53333;51.976;20.144;2023-12-29T01:32:25;22.15;;;12.15;;
36663;SDS011;53333;51.976;20.144;2023-12-29T01:34:58;19.05;;;11.48;;
36663;SDS011;53333;51.976;20.144;2023-12-29T01:37:31;21.60;;;11.27;;
36663;SDS011;53333;51.976;20.144;2023-12-29T01:40:05;19.77;;;10.73;;
36663;SDS011;53333;51.976;20.144;2023-12-29T01:42:38;22.00;;;11.85;;
36663;SDS011;53333;51.976;20.144;2023-12-29T01:45:19;21.50;;;11.37;;
36663;SDS011;53333;51.976;20.144;2023-12-29T01:47:56;18.95;;;11.82;;
36663;SDS011;53333;51.976;20.144;2023-12-29T01:50:29;21.25;;;11.88;;
36663;SDS011;53333;51.976;20.144;2023-12-29T01:53:04;25.83;;;13.27;;
36663;SDS011;53333;51.976;20.144;2023-12-29T01:58:10;21.35;;;12.52;;
36663;SDS011;53333;51.976;20.144;2023-12-29T02:00:44;25.15;;;13.07;;
36663;SDS011;53333;51.976;20.144;2023-12-29T02:03:18;24.95;;;13.18;;
36663;SDS011;53333;51.976;20.144;2023-12-29T02:05:52;27.63;;;14.10;;
36663;SDS011;53333;51.976;20.144;2023-12-29T02:08:27;23.20;;;12.70;;
36663;SDS011;53333;51.976;20.144;2023-12-29T02:11:01;21.25;;;12.65;;
36663;SDS011;53333;51.976;20.144;2023-12-29T02:13:34;21.10;;;12.63;;
36663;SDS011;53333;51.976;20.144;2023-12-29T02:16:09;27.60;;;14.73;;
36663;SDS011;53333;51.976;20.144;2023-12-29T02:18:51;26.65;;;14.18;;
36663;SDS011;53333;51.976;20.144;2023-12-29T02:21:25;28.98;;;13.82;;
36663;SDS011;53333;51.976;20.144;2023-12-29T02:23:58;23.70;;;14.30;;
36663;SDS011;53333;51.976;20.144;2023-12-29T02:26:32;29.27;;;13.50;;
36663;SDS011;53333;51.976;20.144;2023-12-29T02:29:09;27.60;;;14.52;;
36663;SDS011;53333;51.976;20.144;2023-12-29T02:31:46;23.33;;;14.02;;
36663;SDS011;53333;51.976;20.144;2023-12-29T02:34:25;26.73;;;14.15;;
36663;SDS011;53333;51.976;20.144;2023-12-29T02:37:01;25.92;;;14.20;;
36663;SDS011;53333;51.976;20.144;2023-12-29T02:39:35;24.88;;;14.82;;
36663;SDS011;53333;51.976;20.144;2023-12-29T02:42:10;29.15;;;14.57;;
36663;SDS011;53333;51.976;20.144;2023-12-29T02:44:43;23.83;;;14.35;;
36663;SDS011;53333;51.976;20.144;2023-12-29T02:47:17;30.13;;;14.68;;
36663;SDS011;53333;51.976;20.144;2023-12-29T02:49:51;21.85;;;13.15;;
36663;SDS011;53333;51.976;20.144;2023-12-29T02:52:24;31.23;;;14.97;;
36663;SDS011;53333;51.976;20.144;2023-12-29T02:54:56;23.00;;;13.82;;
36663;SDS011;53333;51.976;20.144;2023-12-29T02:57:31;24.27;;;13.30;;
36663;SDS011;53333;51.976;20.144;2023-12-29T03:00:05;23.95;;;13.23;;
36663;SDS011;53333;51.976;20.144;2023-12-29T03:02:39;25.88;;;13.23;;
36663;SDS011;53333;51.976;20.144;2023-12-29T03:05:13;22.88;;;13.80;;
36663;SDS011;53333;51.976;20.144;2023-12-29T03:07:47;24.52;;;14.40;;
36663;SDS011;53333;51.976;20.144;2023-12-29T03:10:19;29.65;;;12.98;;
36663;SDS011;53333;51.976;20.144;2023-12-29T03:12:54;21.83;;;12.93;;
36663;SDS011;53333;51.976;20.144;2023-12-29T03:15:27;25.73;;;12.60;;
36663;SDS011;53333;51.976;20.144;2023-12-29T03:18:00;20.73;;;11.35;;
36663;SDS011;53333;51.976;20.144;2023-12-29T03:20:33;25.65;;;11.95;;
36663;SDS011;53333;51.976;20.144;2023-12-29T03:23:06;24.57;;;12.80;;
36663;SDS011;53333;51.976;20.144;2023-12-29T03:25:39;25.55;;;13.57;;
36663;SDS011;53333;51.976;20.144;2023-12-29T03:28:13;22.52;;;13.48;;
36663;SDS011;53333;51.976;20.144;2023-12-29T03:30:47;21.15;;;12.43;;
36663;SDS011;53333;51.976;20.144;2023-12-29T03:33:20;24.67;;;12.07;;
36663;SDS011;53333;51.976;20.144;2023-12-29T03:35:53;21.30;;;12.73;;
36663;SDS011;53333;51.976;20.144;2023-12-29T03:38:26;22.98;;;12.85;;
36663;SDS011;53333;51.976;20.144;2023-12-29T03:40:59;22.85;;;11.27;;
36663;SDS011;53333;51.976;20.144;2023-12-29T03:43:33;22.38;;;12.90;;
36663;SDS011;53333;51.976;20.144;2023-12-29T03:46:14;27.15;;;12.13;;
36663;SDS011;53333;51.976;20.144;2023-12-29T03:48:49;24.63;;;13.65;;
36663;SDS011;53333;51.976;20.144;2023-12-29T03:51:22;23.58;;;12.90;;
36663;SDS011;53333;51.976;20.144;2023-12-29T03:53:55;22.55;;;13.32;;
36663;SDS011;53333;51.976;20.144;2023-12-29T03:56:29;26.48;;;14.25;;
36663;SDS011;53333;51.976;20.144;2023-12-29T03:59:04;23.73;;;14.20;;
36663;SDS011;53333;51.976;20.144;2023-12-29T04:01:37;27.35;;;13.05;;
36663;SDS011;53333;51.976;20.144;2023-12-29T04:04:10;25.03;;;14.53;;
36663;SDS011;53333;51.976;20.144;2023-12-29T04:06:43;23.95;;;12.73;;
36663;SDS011;53333;51.976;20.144;2023-12-29T04:09:16;25.47;;;13.80;;
36663;SDS011;53333;51.976;20.144;2023-12-29T04:11:49;23.43;;;13.17;;
36663;SDS011;53333;51.976;20.144;2023-12-29T04:14:23;21.95;;;12.77;;
36663;SDS011;53333;51.976;20.144;2023-12-29T04:16:56;21.33;;;12.38;;
36663;SDS011;53333;51.976;20.144;2023-12-29T04:19:30;23.65;;;12.52;;
36663;SDS011;53333;51.976;20.144;2023-12-29T04:22:03;26.48;;;14.02;;
36663;SDS011;53333;51.976;20.144;2023-12-29T04:24:37;28.35;;;14.43;;
36663;SDS011;53333;51.976;20.144;2023-12-29T04:27:11;25.52;;;14.88;;
36663;SDS011;53333;51.976;20.144;2023-12-29T04:29:45;25.13;;;13.88;;
36663;SDS011;53333;51.976;20.144;2023-12-29T04:32:19;22.42;;;13.52;;
36663;SDS011;53333;51.976;20.144;2023-12-29T04:34:52;28.58;;;15.07;;
36663;SDS011;53333;51.976;20.144;2023-12-29T04:37:24;26.97;;;13.90;;
36663;SDS011;53333;51.976;20.144;2023-12-29T04:39:58;26.50;;;15.07;;
36663;SDS011;53333;51.976;20.144;2023-12-29T04:42:31;25.80;;;14.48;;
36663;SDS011;53333;51.976;20.144;2023-12-29T04:47:40;21.40;;;13.18;;
36663;SDS011;53333;51.976;20.144;2023-12-29T04:50:16;22.48;;;13.45;;
36663;SDS011;53333;51.976;20.144;2023-12-29T04:52:49;27.47;;;13.47;;
36663;SDS011;53333;51.976;20.144;2023-12-29T04:55:22;23.05;;;13.27;;
36663;SDS011;53333;51.976;20.144;2023-12-29T04:57:55;23.17;;;13.30;;
36663;SDS011;53333;51.976;20.144;2023-12-29T05:00:30;24.83;;;14.70;;
36663;SDS011;53333;51.976;20.144;2023-12-29T05:03:04;22.70;;;13.55;;
36663;SDS011;53333;51.976;20.144;2023-12-29T05:05:42;28.38;;;14.68;;
36663;SDS011;53333;51.976;20.144;2023-12-29T05:08:16;25.83;;;15.13;;
36663;SDS011;53333;51.976;20.144;2023-12-29T05:10:51;22.67;;;13.75;;
36663;SDS011;53333;51.976;20.144;2023-12-29T05:13:24;25.57;;;14.50;;
36663;SDS011;53333;51.976;20.144;2023-12-29T05:15:58;27.75;;;15.00;;
36663;SDS011;53333;51.976;20.144;2023-12-29T05:18:31;25.15;;;14.30;;
36663;SDS011;53333;51.976;20.144;2023-12-29T05:21:04;26.25;;;14.25;;
36663;SDS011;53333;51.976;20.144;2023-12-29T05:23:37;26.23;;;14.70;;
36663;SDS011;53333;51.976;20.144;2023-12-29T05:26:10;23.70;;;14.45;;
36663;SDS011;53333;51.976;20.144;2023-12-29T05:28:43;24.20;;;13.80;;
36663;SDS011;53333;51.976;20.144;2023-12-29T05:31:18;27.07;;;14.23;;
36663;SDS011;53333;51.976;20.144;2023-12-29T05:33:51;25.13;;;14.57;;
36663;SDS011;53333;51.976;20.144;2023-12-29T05:36:24;23.50;;;13.73;;
36663;SDS011;53333;51.976;20.144;2023-12-29T05:38:57;25.85;;;14.32;;
36663;SDS011;53333;51.976;20.144;2023-12-29T05:41:29;23.70;;;13.73;;
36663;SDS011;53333;51.976;20.144;2023-12-29T05:44:03;26.97;;;15.50;;
36663;SDS011;53333;51.976;20.144;2023-12-29T05:46:37;22.23;;;13.13;;
36663;SDS011;53333;51.976;20.144;2023-12-29T05:49:10;25.75;;;13.48;;
36663;SDS011;53333;51.976;20.144;2023-12-29T05:51:43;29.30;;;14.55;;
36663;SDS011;53333;51.976;20.144;2023-12-29T05:54:16;22.58;;;14.05;;
36663;SDS011;53333;51.976;20.144;2023-12-29T05:56:49;26.37;;;13.53;;
36663;SDS011;53333;51.976;20.144;2023-12-29T05:59:22;27.58;;;13.73;;
36663;SDS011;53333;51.976;20.144;2023-12-29T06:01:57;30.47;;;15.00;;
36663;SDS011;53333;51.976;20.144;2023-12-29T06:04:30;24.35;;;12.00;;
36663;SDS011;53333;51.976;20.144;2023-12-29T06:07:03;25.27;;;13.23;;
36663;SDS011;53333;51.976;20.144;2023-12-29T06:09:36;27.43;;;14.67;;
36663;SDS011;53333;51.976;20.144;2023-12-29T06:12:09;21.63;;;12.07;;
36663;SDS011;53333;51.976;20.144;2023-12-29T06:14:42;21.25;;;13.30;;
36663;SDS011;53333;51.976;20.144;2023-12-29T06:17:16;23.20;;;13.25;;
36663;SDS011;53333;51.976;20.144;2023-12-29T06:19:49;20.92;;;12.52;;
36663;SDS011;53333;51.976;20.144;2023-12-29T06:22:22;23.93;;;13.03;;
36663;SDS011;53333;51.976;20.144;2023-12-29T06:24:55;21.80;;;12.47;;
36663;SDS011;53333;51.976;20.144;2023-12-29T06:27:28;22.27;;;12.33;;
36663;SDS011;53333;51.976;20.144;2023-12-29T06:30:04;25.83;;;13.35;;
36663;SDS011;53333;51.976;20.144;2023-12-29T06:32:39;20.52;;;11.25;;
36663;SDS011;53333;51.976;20.144;2023-12-29T06:35:13;19.88;;;11.50;;
36663;SDS011;53333;51.976;20.144;2023-12-29T06:37:46;20.10;;;11.43;;
36663;SDS011;53333;51.976;20.144;2023-12-29T06:40:19;20.17;;;11.53;;
36663;SDS011;53333;51.976;20.144;2023-12-29T06:42:52;18.83;;;11.47;;
36663;SDS011;53333;51.976;20.144;2023-12-29T06:45:25;23.30;;;11.70;;
36663;SDS011;53333;51.976;20.144;2023-12-29T06:47:59;23.57;;;10.47;;
36663;SDS011;53333;51.976;20.144;2023-12-29T06:50:34;17.05;;;9.95;;
36663;SDS011;53333;51.976;20.144;2023-12-29T06:53:08;17.90;;;10.35;;
36663;SDS011;53333;51.976;20.144;2023-12-29T06:55:41;22.23;;;10.50;;
36663;SDS011;53333;51.976;20.144;2023-12-29T06:58:14;16.47;;;9.40;;
36663;SDS011;53333;51.976;20.144;2023-12-29T07:00:47;15.17;;;9.83;;
36663;SDS011;53333;51.976;20.144;2023-12-29T07:03:21;20.27;;;10.45;;
36663;SDS011;53333;51.976;20.144;2023-12-29T07:05:54;16.98;;;9.98;;
36663;SDS011;53333;51.976;20.144;2023-12-29T07:08:27;15.07;;;9.10;;
36663;SDS011;53333;51.976;20.144;2023-12-29T07:11:00;15.27;;;8.80;;
36663;SDS011;53333;51.976;20.144;2023-12-29T07:13:33;16.38;;;9.43;;
36663;SDS011;53333;51.976;20.144;2023-12-29T07:16:08;15.18;;;9.20;;
36663;SDS011;53333;51.976;20.144;2023-12-29T07:18:43;12.15;;;8.38;;
36663;SDS011;53333;51.976;20.144;2023-12-29T07:21:17;16.23;;;9.48;;
36663;SDS011;53333;51.976;20.144;2023-12-29T07:23:50;14.25;;;9.18;;
36663;SDS011;53333;51.976;20.144;2023-12-29T07:26:23;14.68;;;8.43;;
36663;SDS011;53333;51.976;20.144;2023-12-29T07:28:56;14.00;;;9.13;;
36663;SDS011;53333;51.976;20.144;2023-12-29T07:31:29;14.00;;;7.90;;
36663;SDS011;53333;51.976;20.144;2023-12-29T07:34:03;14.63;;;8.98;;
36663;SDS011;53333;51.976;20.144;2023-12-29T07:36:38;16.27;;;8.88;;
36663;SDS011;53333;51.976;20.144;2023-12-29T07:39:12;15.88;;;8.52;;
36663;SDS011;53333;51.976;20.144;2023-12-29T07:41:45;15.07;;;9.00;;
36663;SDS011;53333;51.976;20.144;2023-12-29T07:44:20;19.15;;;9.45;;
36663;SDS011;53333;51.976;20.144;2023-12-29T07:46:53;18.40;;;9.90;;
36663;SDS011;53333;51.976;20.144;2023-12-29T07:49:27;19.67;;;9.98;;
36663;SDS011;53333;51.976;20.144;2023-12-29T07:52:01;19.23;;;10.40;;
36663;SDS011;53333;51.976;20.144;2023-12-29T07:54:34;23.85;;;11.00;;
36663;SDS011;53333;51.976;20.144;2023-12-29T07:57:07;19.95;;;10.15;;
36663;SDS011;53333;51.976;20.144;2023-12-29T07:59:39;20.38;;;10.85;;
36663;SDS011;53333;51.976;20.144;2023-12-29T08:02:13;18.58;;;10.80;;
36663;SDS011;53333;51.976;20.144;2023-12-29T08:04:47;25.40;;;15.05;;
36663;SDS011;53333;51.976;20.144;2023-12-29T08:07:20;28.48;;;13.70;;
36663;SDS011;53333;51.976;20.144;2023-12-29T08:09:53;18.90;;;10.88;;
36663;SDS011;53333;51.976;20.144;2023-12-29T08:12:26;17.00;;;10.30;;
36663;SDS011;53333;51.976;20.144;2023-12-29T08:14:59;22.52;;;11.48;;
36663;SDS011;53333;51.976;20.144;2023-12-29T08:17:32;20.33;;;12.35;;
36663;SDS011;53333;51.976;20.144;2023-12-29T08:20:07;18.67;;;10.37;;
36663;SDS011;53333;51.976;20.144;2023-12-29T08:22:41;23.35;;;11.95;;
36663;SDS011;53333;51.976;20.144;2023-12-29T08:25:14;24.77;;;11.35;;
36663;SDS011;53333;51.976;20.144;2023-12-29T08:27:47;22.13;;;12.27;;
36663;SDS011;53333;51.976;20.144;2023-12-29T08:30:20;24.93;;;11.80;;
36663;SDS011;53333;51.976;20.144;2023-12-29T08:32:53;20.83;;;11.13;;
36663;SDS011;53333;51.976;20.144;2023-12-29T08:35:27;16.13;;;11.00;;
36663;SDS011;53333;51.976;20.144;2023-12-29T08:38:00;21.00;;;11.38;;
36663;SDS011;53333;51.976;20.144;2023-12-29T08:40:33;19.33;;;10.30;;
36663;SDS011;53333;51.976;20.144;2023-12-29T08:43:07;21.60;;;11.45;;
36663;SDS011;53333;51.976;20.144;2023-12-29T08:45:40;15.65;;;10.63;;
36663;SDS011;53333;51.976;20.144;2023-12-29T08:48:13;16.70;;;9.80;;
36663;SDS011;53333;51.976;20.144;2023-12-29T08:50:48;16.70;;;10.82;;
36663;SDS011;53333;51.976;20.144;2023-12-29T08:53:23;21.40;;;11.93;;
36663;SDS011;53333;51.976;20.144;2023-12-29T08:55:56;37.47;;;19.37;;
36663;SDS011;53333;51.976;20.144;2023-12-29T08:58:29;22.58;;;12.70;;
36663;SDS011;53333;51.976;20.144;2023-12-29T09:01:02;18.25;;;11.35;;
36663;SDS011;53333;51.976;20.144;2023-12-29T09:03:36;18.00;;;9.95;;
36663;SDS011;53333;51.976;20.144;2023-12-29T09:06:10;15.90;;;9.65;;
36663;SDS011;53333;51.976;20.144;2023-12-29T09:08:43;18.27;;;10.07;;
36663;SDS011;53333;51.976;20.144;2023-12-29T09:11:16;19.65;;;10.98;;
36663;SDS011;53333;51.976;20.144;2023-12-29T09:13:49;15.23;;;9.87;;
36663;SDS011;53333;51.976;20.144;2023-12-29T09:16:22;20.73;;;9.43;;
36663;SDS011;53333;51.976;20.144;2023-12-29T09:18:55;17.20;;;9.93;;
36663;SDS011;53333;51.976;20.144;2023-12-29T09:21:29;14.85;;;9.95;;
36663;SDS011;53333;51.976;20.144;2023-12-29T09:24:02;16.42;;;10.65;;
36663;SDS011;53333;51.976;20.144;2023-12-29T09:26:36;18.25;;;10.38;;
36663;SDS011;53333;51.976;20.144;2023-12-29T09:29:09;13.27;;;9.40;;
36663;SDS011;53333;51.976;20.144;2023-12-29T09:31:41;16.02;;;10.02;;
36663;SDS011;53333;51.976;20.144;2023-12-29T09:34:14;15.30;;;10.00;;
36663;SDS011;53333;51.976;20.144;2023-12-29T09:36:50;13.43;;;8.95;;
36663;SDS011;53333;51.976;20.144;2023-12-29T09:39:23;16.05;;;9.70;;
36663;SDS011;53333;51.976;20.144;2023-12-29T09:41:57;14.93;;;9.95;;
36663;SDS011;53333;51.976;20.144;2023-12-29T09:44:33;19.13;;;11.05;;
36663;SDS011;53333;51.976;20.144;2023-12-29T09:47:08;18.20;;;11.02;;
36663;SDS011;53333;51.976;20.144;2023-12-29T09:49:43;18.38;;;11.48;;
36663;SDS011;53333;51.976;20.144;2023-12-29T09:52:18;18.58;;;11.60;;
36663;SDS011;53333;51.976;20.144;2023-12-29T09:54:54;24.73;;;15.10;;
36663;SDS011;53333;51.976;20.144;2023-12-29T09:57:27;16.35;;;10.57;;
36663;SDS011;53333;51.976;20.144;2023-12-29T10:00:00;17.58;;;10.82;;
36663;SDS011;53333;51.976;20.144;2023-12-29T10:02:40;15.60;;;10.02;;
36663;SDS011;53333;51.976;20.144;2023-12-29T10:05:14;15.95;;;10.38;;
36663;SDS011;53333;51.976;20.144;2023-12-29T10:07:49;15.90;;;10.27;;
36663;SDS011;53333;51.976;20.144;2023-12-29T10:10:25;16.63;;;10.18;;
36663;SDS011;53333;51.976;20.144;2023-12-29T10:13:00;19.83;;;10.60;;
36663;SDS011;53333;51.976;20.144;2023-12-29T10:15:37;17.45;;;10.00;;
36663;SDS011;53333;51.976;20.144;2023-12-29T10:18:21;17.87;;;10.87;;
36663;SDS011;53333;51.976;20.144;2023-12-29T10:21:01;18.05;;;10.80;;
36663;SDS011;53333;51.976;20.144;2023-12-29T10:23:42;15.85;;;10.73;;
36663;SDS011;53333;51.976;20.144;2023-12-29T10:26:20;20.27;;;9.90;;
36663;SDS011;53333;51.976;20.144;2023-12-29T10:28:54;18.17;;;9.80;;
36663;SDS011;53333;51.976;20.144;2023-12-29T10:31:28;19.52;;;11.13;;
36663;SDS011;53333;51.976;20.144;2023-12-29T10:34:17;15.43;;;9.18;;
36663;SDS011;53333;51.976;20.144;2023-12-29T10:36:51;15.40;;;9.27;;
36663;SDS011;53333;51.976;20.144;2023-12-29T10:39:25;15.60;;;9.75;;
36663;SDS011;53333;51.976;20.144;2023-12-29T10:42:02;13.25;;;8.20;;
36663;SDS011;53333;51.976;20.144;2023-12-29T10:44:38;12.38;;;7.45;;
36663;SDS011;53333;51.976;20.144;2023-12-29T10:47:11;11.13;;;6.53;;
36663;SDS011;53333;51.976;20.144;2023-12-29T10:49:47;12.00;;;6.20;;
36663;SDS011;53333;51.976;20.144;2023-12-29T10:55:06;10.85;;;5.50;;
36663;SDS011;53333;51.976;20.144;2023-12-29T10:57:40;13.55;;;8.00;;
36663;SDS011;53333;51.976;20.144;2023-12-29T11:00:14;16.35;;;9.77;;
36663;SDS011;53333;51.976;20.144;2023-12-29T11:02:53;12.52;;;6.68;;
36663;SDS011;53333;51.976;20.144;2023-12-29T11:05:26;8.63;;;5.78;;
36663;SDS011;53333;51.976;20.144;2023-12-29T11:08:00;8.88;;;5.22;;
36663;SDS011;53333;51.976;20.144;2023-12-29T11:10:34;7.78;;;4.90;;
36663;SDS011;53333;51.976;20.144;2023-12-29T11:13:07;8.20;;;4.78;;
36663;SDS011;53333;51.976;20.144;2023-12-29T11:15:46;9.77;;;5.53;;
36663;SDS011;53333;51.976;20.144;2023-12-29T11:18:20;11.50;;;5.13;;
36663;SDS011;53333;51.976;20.144;2023-12-29T11:20:53;8.55;;;5.25;;
36663;SDS011;53333;51.976;20.144;2023-12-29T11:23:28;10.88;;;5.25;;
36663;SDS011;53333;51.976;20.144;2023-12-29T11:26:02;11.15;;;5.35;;
36663;SDS011;53333;51.976;20.144;2023-12-29T11:28:36;6.80;;;4.00;;
36663;SDS011;53333;51.976;20.144;2023-12-29T11:31:09;5.43;;;3.80;;
36663;SDS011;53333;51.976;20.144;2023-12-29T11:33:43;5.93;;;3.63;;
36663;SDS011;53333;51.976;20.144;2023-12-29T11:36:22;7.43;;;3.67;;
36663;SDS011;53333;51.976;20.144;2023-12-29T11:39:06;11.27;;;4.60;;
36663;SDS011;53333;51.976;20.144;2023-12-29T11:41:49;21.10;;;10.73;;
36663;SDS011;53333;51.976;20.144;2023-12-29T11:44:31;6.18;;;3.70;;
36663;SDS011;53333;51.976;20.144;2023-12-29T11:47:05;6.05;;;3.45;;
36663;SDS011;53333;51.976;20.144;2023-12-29T11:52:32;6.18;;;3.50;;
36663;SDS011;53333;51.976;20.144;2023-12-29T11:55:09;6.88;;;3.35;;
36663;SDS011;53333;51.976;20.144;2023-12-29T11:57:44;5.43;;;2.78;;
36663;SDS011;53333;51.976;20.144;2023-12-29T12:00:17;6.88;;;3.53;;
36663;SDS011;53333;51.976;20.144;2023-12-29T12:02:50;6.38;;;4.05;;
36663;SDS011;53333;51.976;20.144;2023-12-29T12:08:30;5.82;;;3.58;;
36663;SDS011;53333;51.976;20.144;2023-12-29T12:14:18;6.28;;;3.95;;
36663;SDS011;53333;51.976;20.144;2023-12-29T12:17:30;6.43;;;3.92;;
36663;SDS011;53333;51.976;20.144;2023-12-29T12:20:06;6.20;;;3.92;;
36663;SDS011;53333;51.976;20.144;2023-12-29T12:22:41;8.02;;;4.28;;
36663;SDS011;53333;51.976;20.144;2023-12-29T12:25:17;6.30;;;3.80;;
36663;SDS011;53333;51.976;20.144;2023-12-29T12:30:25;6.73;;;3.73;;
36663;SDS011;53333;51.976;20.144;2023-12-29T12:32:59;10.27;;;4.40;;
36663;SDS011;53333;51.976;20.144;2023-12-29T12:35:35;7.45;;;3.85;;
36663;SDS011;53333;51.976;20.144;2023-12-29T12:38:08;5.85;;;3.83;;
36663;SDS011;53333;51.976;20.144;2023-12-29T12:43:14;6.30;;;3.53;;
36663;SDS011;53333;51.976;20.144;2023-12-29T12:45:52;14.23;;;7.13;;
36663;SDS011;53333;51.976;20.144;2023-12-29T12:48:28;6.18;;;3.83;;
36663;SDS011;53333;51.976;20.144;2023-12-29T12:51:09;5.63;;;3.13;;
36663;SDS011;53333;51.976;20.144;2023-12-29T12:53:42;9.45;;;4.05;;
36663;SDS011;53333;51.976;20.144;2023-12-29T12:56:17;6.70;;;3.88;;
36663;SDS011;53333;51.976;20.144;2023-12-29T12:58:52;6.43;;;3.67;;
36663;SDS011;53333;51.976;20.144;2023-12-29T13:01:28;6.72;;;3.92;;
36663;SDS011;53333;51.976;20.144;2023-12-29T13:04:07;7.80;;;4.28;;
36663;SDS011;53333;51.976;20.144;2023-12-29T13:06:42;9.00;;;4.50;;
36663;SDS011;53333;51.976;20.144;2023-12-29T13:09:19;5.78;;;3.58;;
36663;SDS011;53333;51.976;20.144;2023-12-29T13:12:06;6.82;;;3.83;;
36663;SDS011;53333;51.976;20.144;2023-12-29T13:14:40;10.32;;;5.63;;
36663;SDS011;53333;51.976;20.144;2023-12-29T13:17:14;6.82;;;4.40;;
36663;SDS011;53333;51.976;20.144;2023-12-29T13:19:54;5.75;;;3.78;;
36663;SDS011;53333;51.976;20.144;2023-12-29T13:22:29;5.80;;;3.38;;
36663;SDS011;53333;51.976;20.144;2023-12-29T13:25:03;8.38;;;3.72;;
36663;SDS011;53333;51.976;20.144;2023-12-29T13:27:39;5.68;;;3.15;;
36663;SDS011;53333;51.976;20.144;2023-12-29T13:30:13;8.38;;;3.70;;
36663;SDS011;53333;51.976;20.144;2023-12-29T13:32:48;7.50;;;3.47;;
36663;SDS011;53333;51.976;20.144;2023-12-29T13:35:29;6.63;;;3.97;;
36663;SDS011;53333;51.976;20.144;2023-12-29T13:38:08;5.80;;;3.50;;
36663;SDS011;53333;51.976;20.144;2023-12-29T13:40:45;4.70;;;3.08;;
36663;SDS011;53333;51.976;20.144;2023-12-29T13:43:29;5.18;;;2.72;;
36663;SDS011;53333;51.976;20.144;2023-12-29T13:46:04;5.32;;;3.55;;
36663;SDS011;53333;51.976;20.144;2023-12-29T13:48:39;5.45;;;3.28;;
36663;SDS011;53333;51.976;20.144;2023-12-29T13:51:14;9.40;;;3.42;;
36663;SDS011;53333;51.976;20.144;2023-12-29T13:53:49;8.02;;;3.80;;
36663;SDS011;53333;51.976;20.144;2023-12-29T13:56:30;6.32;;;3.40;;
36663;SDS011;53333;51.976;20.144;2023-12-29T13:59:03;7.05;;;3.40;;
36663;SDS011;53333;51.976;20.144;2023-12-29T14:01:38;5.10;;;3.35;;
36663;SDS011;53333;51.976;20.144;2023-12-29T14:04:13;9.30;;;3.88;;
36663;SDS011;53333;51.976;20.144;2023-12-29T14:06:51;9.18;;;3.33;;
36663;SDS011;53333;51.976;20.144;2023-12-29T14:09:27;7.70;;;3.83;;
36663;SDS011;53333;51.976;20.144;2023-12-29T14:12:01;5.28;;;3.42;;
36663;SDS011;53333;51.976;20.144;2023-12-29T14:14:34;7.47;;;3.50;;
36663;SDS011;53333;51.976;20.144;2023-12-29T14:17:07;8.05;;;4.20;;
36663;SDS011;53333;51.976;20.144;2023-12-29T14:19:43;7.20;;;4.20;;
36663;SDS011;53333;51.976;20.144;2023-12-29T14:22:21;6.97;;;3.88;;
36663;SDS011;53333;51.976;20.144;2023-12-29T14:25:04;7.50;;;4.53;;
36663;SDS011;53333;51.976;20.144;2023-12-29T14:27:39;9.10;;;4.80;;
36663;SDS011;53333;51.976;20.144;2023-12-29T14:30:19;9.15;;;5.75;;
36663;SDS011;53333;51.976;20.144;2023-12-29T14:32:52;7.30;;;4.85;;
36663;SDS011;53333;51.976;20.144;2023-12-29T14:35:26;27.67;;;13.05;;
36663;SDS011;53333;51.976;20.144;2023-12-29T14:38:01;12.90;;;6.63;;
36663;SDS011;53333;51.976;20.144;2023-12-29T14:40:34;13.05;;;6.85;;
36663;SDS011;53333;51.976;20.144;2023-12-29T14:43:07;11.23;;;7.30;;
36663;SDS011;53333;51.976;20.144;2023-12-29T14:45:40;24.47;;;11.57;;
36663;SDS011;53333;51.976;20.144;2023-12-29T14:48:13;18.13;;;10.27;;
36663;SDS011;53333;51.976;20.144;2023-12-29T14:53:20;13.48;;;7.38;;
36663;SDS011;53333;51.976;20.144;2023-12-29T14:55:53;14.13;;;6.97;;
36663;SDS011;53333;51.976;20.144;2023-12-29T14:58:26;12.30;;;7.22;;
36663;SDS011;53333;51.976;20.144;2023-12-29T15:00:59;15.37;;;7.60;;
36663;SDS011;53333;51.976;20.144;2023-12-29T15:03:32;14.73;;;7.27;;
36663;SDS011;53333;51.976;20.144;2023-12-29T15:06:06;14.88;;;7.78;;
36663;SDS011;53333;51.976;20.144;2023-12-29T15:08:39;14.52;;;7.50;;
36663;SDS011;53333;51.976;20.144;2023-12-29T15:11:12;16.07;;;8.33;;
36663;SDS011;53333;51.976;20.144;2023-12-29T15:13:45;10.53;;;6.23;;
36663;SDS011;53333;51.976;20.144;2023-12-29T15:16:18;9.82;;;6.18;;
36663;SDS011;53333;51.976;20.144;2023-12-29T15:18:51;10.63;;;6.55;;
36663;SDS011;53333;51.976;20.144;2023-12-29T15:21:25;19.13;;;8.25;;